Marietta, GA (30062)

2:03 PM EDT on June 03, 2015 (GMT -0400)
Sutton Glen | | Change Station
CLOSE
Current Station
Personal Weather Station
Location: Marietta, GA
Elevation: 1068 ft
Nearby Weather Stations

Elev 1068 ft 34.00 °N, 84.47 °W | Updated 39 seconds ago

Partly Cloudy
Partly Cloudy
76.6 °F
Feels Like 78 °F
N
8.0
Wind Variable Wind from ESE
Gusts 12.0 mph

Today
High -- | Low -- °F
--% Chance of Precip.
Yesterday
High -- | Low -- °F
Precip. -- in
6:27 AM 8:45 PM
Full, 99% visible
Pressure 29.95 in
Visibility 10.0 miles
Clouds Scattered Clouds 3000 ft
Mostly Cloudy 4000 ft
Mostly Cloudy 20000 ft
Heat Index 78 °F
Dew Point 65 °F
Humidity 67%
Rainfall 0.00 in
Snow Depth Not available.
UV 7 out of 12
Pollen 4.70 out of 12
Air Quality Not available.
Flu Activity Sporadic
METAR KMGE 031758Z 08007KT 060V120 10SM SCT030 BKN040CB BKN200 25/19 A2997 RMK AO2A CB 18SW-15W MOV E SLP141 T02500187 10256 20186 58011 $

More Conditions Fewer Conditions

Pressure 29.95 in
Visibility 10.0 miles
Clouds Scattered Clouds 3000 ft
Mostly Cloudy 4000 ft
Mostly Cloudy 20000 ft
Heat Index 78 °F
Dew Point 65 °F
Humidity 67%
Rainfall 0.00 in
Snow Depth Not available.
UV 7 out of 12
Pollen 4.70 out of 12
Air Quality Not available.
Flu Activity Sporadic
METAR KMGE 031758Z 08007KT 060V120 10SM SCT030 BKN040CB BKN200 25/19 A2997 RMK AO2A CB 18SW-15W MOV E SLP141 T02500187 10256 20186 58011 $

More Conditions Fewer Conditions

10-Day Weather Forecast

×

Almanac

Astronomy

Jun. 03, 2015 Rise Set
Actual Time
Civil Twilight
Nautical Twilight
Astronomical Twilight
Moon
Length of Visible Light
Length of Day
Tomorrow will be .
, % of the Moon is Illuminated

Today's Extremes

State Highs State Lows

Community

WunderPhotos

Upload Photos

1,826,267 photos uploaded!

WunderBlogs® & News

Nearby

Air Quality

  Air Quality AQ Index Pollutant
Not available.

Snow Depth

Station Depth Elevation

Earthquake Activity

City Distance Mag. Time & Date
Minimum magnitude displayed is 2.5.

Coastal Water Temperatures

Place Temperature

Stations

Nearby Weather Stations

Station Location Temp. Windchill Dew Point Humidity Wind Precip. Elev Updated Type